createdAt,value
2022-10-19T01:05:54.461Z,79.40
2022-10-19T01:08:21.774Z,78.90
2022-10-19T01:11:10.825Z,79.10
2022-10-19T01:14:00.948Z,79.20
2022-10-19T01:16:35.413Z,79.40
2022-10-19T01:19:27.667Z,79.40
2022-10-19T01:22:08.224Z,79.50
2022-10-19T01:24:40.985Z,79.70
2022-10-19T01:27:32.715Z,79.70
2022-10-19T01:30:06.322Z,79.80
2022-10-19T01:32:51.848Z,79.70
2022-10-19T01:35:39.074Z,79.70
2022-10-19T01:38:32.243Z,79.70
2022-10-19T01:41:20.255Z,79.70
2022-10-19T01:44:02.860Z,79.80
2022-10-19T01:46:33.545Z,79.80
2022-10-19T01:49:04.718Z,79.80
2022-10-19T01:51:34.141Z,79.80
2022-10-19T01:54:05.602Z,79.90
2022-10-19T01:56:32.414Z,80.00
2022-10-19T01:59:00.038Z,80.00
2022-10-19T02:01:27.687Z,79.90
2022-10-19T02:03:54.389Z,80.00
2022-10-19T02:06:21.385Z,80.00
2022-10-19T02:08:49.282Z,80.10
2022-10-19T02:11:22.644Z,80.10
2022-10-19T02:13:56.448Z,80.00
2022-10-19T02:17:12.072Z,80.00
2022-10-19T02:19:38.815Z,80.10
2022-10-19T02:22:06.036Z,79.90
2022-10-19T02:24:32.858Z,79.90
2022-10-19T02:26:59.593Z,80.00
2022-10-19T02:29:26.762Z,80.00
2022-10-19T02:31:53.555Z,80.10
2022-10-19T02:34:20.278Z,80.20
2022-10-19T02:36:46.998Z,80.30
2022-10-19T02:39:13.664Z,80.40
2022-10-19T02:41:44.844Z,80.50
2022-10-19T02:44:20.203Z,80.50
2022-10-19T02:46:53.035Z,80.50
2022-10-19T02:49:19.718Z,80.40
2022-10-19T02:52:06.302Z,80.40
2022-10-19T02:54:33.202Z,80.60
2022-10-19T02:56:59.873Z,80.70
2022-10-19T02:59:26.644Z,80.70
2022-10-19T03:01:53.347Z,80.90
2022-10-19T03:04:20.113Z,81.00
2022-10-19T03:06:47.005Z,80.90
2022-10-19T03:09:13.703Z,81.00
2022-10-19T03:11:42.812Z,81.00
2022-10-19T03:14:09.718Z,81.10
2022-10-19T03:16:36.384Z,81.10
2022-10-19T03:19:03.160Z,81.10
2022-10-19T03:21:29.905Z,81.20
2022-10-19T03:23:56.609Z,81.20
2022-10-19T03:26:34.696Z,81.30
2022-10-19T03:29:01.693Z,81.40
2022-10-19T03:31:28.467Z,81.40
2022-10-19T03:33:55.215Z,81.30
2022-10-19T03:36:26.338Z,81.40
2022-10-19T03:38:57.731Z,81.50
2022-10-19T03:41:26.103Z,81.60
2022-10-19T03:44:03.300Z,81.70
2022-10-19T03:46:30.052Z,81.70
2022-10-19T03:48:56.783Z,81.70
2022-10-19T03:51:24.943Z,81.80
2022-10-19T03:53:58.042Z,81.70
2022-10-19T03:56:25.450Z,81.90
2022-10-19T03:58:56.405Z,81.90
2022-10-19T04:01:42.969Z,82.00
2022-10-19T04:04:15.864Z,82.00
2022-10-19T04:06:44.542Z,82.00
2022-10-19T04:09:16.584Z,81.80
2022-10-19T04:11:43.507Z,81.70
2022-10-19T04:14:19.281Z,81.80
2022-10-19T04:16:54.017Z,81.80
2022-10-19T04:19:20.758Z,81.70
2022-10-19T04:21:48.706Z,81.60
2022-10-19T04:24:17.067Z,81.70
2022-10-19T04:26:48.263Z,81.70
2022-10-19T04:29:15.613Z,81.80
2022-10-19T04:31:42.416Z,81.90
2022-10-19T04:34:09.395Z,82.00
2022-10-19T04:36:36.274Z,82.00
2022-10-19T04:39:03.969Z,82.00
2022-10-19T04:41:33.276Z,81.90
2022-10-19T04:44:02.620Z,81.90
2022-10-19T04:46:39.751Z,82.00
2022-10-19T04:49:06.614Z,82.00
2022-10-19T04:51:33.425Z,81.90
2022-10-19T04:54:04.836Z,82.00
2022-10-19T04:56:31.596Z,82.10
2022-10-19T04:58:59.021Z,82.20
2022-10-19T05:01:26.833Z,82.20
2022-10-19T05:03:58.969Z,82.30
2022-10-19T05:06:25.897Z,82.20
2022-10-19T05:09:03.187Z,82.10
2022-10-19T05:11:30.108Z,82.00
2022-10-19T05:14:00.420Z,81.90
2022-10-19T05:16:27.335Z,81.80
2022-10-19T05:18:55.143Z,81.90
2022-10-19T05:21:22.302Z,81.90
2022-10-19T05:23:55.343Z,81.90
2022-10-19T05:26:27.619Z,81.90
2022-10-19T05:28:55.858Z,81.90
2022-10-19T05:31:24.729Z,81.90
2022-10-19T05:33:52.073Z,81.90
2022-10-19T05:36:23.522Z,82.00
2022-10-19T05:38:50.322Z,82.00
2022-10-19T05:41:17.200Z,82.00
2022-10-19T05:43:44.310Z,82.10
2022-10-19T05:46:13.185Z,82.10
2022-10-19T05:48:44.102Z,82.10
2022-10-19T05:51:12.456Z,82.00
2022-10-19T05:56:07.704Z,82.00
2022-10-19T05:58:34.831Z,82.10
2022-10-19T06:01:01.994Z,82.10
2022-10-19T06:03:28.813Z,82.10
2022-10-19T06:05:55.770Z,82.10
2022-10-19T06:08:25.927Z,82.10
2022-10-19T06:11:04.202Z,82.10
2022-10-19T06:13:31.050Z,82.20
2022-10-19T06:15:57.783Z,82.10
2022-10-19T06:18:24.473Z,82.20
2022-10-19T06:20:54.129Z,82.20
2022-10-19T06:23:20.822Z,82.30
2022-10-19T06:25:49.100Z,82.60
2022-10-19T06:28:15.811Z,82.20
2022-10-19T06:30:45.553Z,82.20
2022-10-19T06:33:13.129Z,82.20
2022-10-19T06:35:40.040Z,82.70
2022-10-19T06:38:07.066Z,82.30
2022-10-19T06:40:34.505Z,82.30
2022-10-19T06:43:03.671Z,82.30
2022-10-19T06:45:38.239Z,82.30
2022-10-19T06:48:07.714Z,82.40
2022-10-19T06:50:34.667Z,82.60
2022-10-19T06:53:01.355Z,82.60
2022-10-19T06:55:32.226Z,82.70
2022-10-19T06:58:00.736Z,82.70
2022-10-19T07:00:28.951Z,82.60
2022-10-19T07:02:56.071Z,82.60
2022-10-19T07:05:25.651Z,82.70
2022-10-19T07:07:54.926Z,82.60
2022-10-19T07:10:37.590Z,82.70
2022-10-19T07:13:04.356Z,82.70
2022-10-19T07:15:31.167Z,82.70
2022-10-19T07:17:57.966Z,82.80
2022-10-19T07:20:26.990Z,82.80
2022-10-19T07:22:53.798Z,82.70
2022-10-19T07:25:20.821Z,82.90
2022-10-19T07:27:50.007Z,82.90
2022-10-19T07:30:19.437Z,82.90
2022-10-19T07:32:47.165Z,82.90
2022-10-19T07:35:14.341Z,83.00
2022-10-19T07:37:41.452Z,83.20
2022-10-19T07:40:08.897Z,83.00
2022-10-19T07:42:35.732Z,82.70
2022-10-19T07:45:02.930Z,82.20
2022-10-19T07:47:29.591Z,81.90
2022-10-19T07:49:56.311Z,81.90
2022-10-19T07:52:26.040Z,81.40
2022-10-19T07:54:57.811Z,80.90
2022-10-19T07:57:24.491Z,80.20
2022-10-19T07:59:52.876Z,80.10
2022-10-19T08:02:19.655Z,80.00
2022-10-19T08:05:00.276Z,80.00
2022-10-19T08:07:27.996Z,80.10
2022-10-19T08:09:54.907Z,80.20
2022-10-19T08:12:22.828Z,80.20
2022-10-19T08:14:49.549Z,80.20
2022-10-19T08:17:19.284Z,80.10
2022-10-19T08:19:46.046Z,80.10
2022-10-19T08:22:12.813Z,79.70
2022-10-19T08:24:42.541Z,79.90
2022-10-19T08:27:09.279Z,79.60
2022-10-19T08:29:36.124Z,79.40
2022-10-19T08:32:03.383Z,79.50
2022-10-19T08:34:31.120Z,79.50
2022-10-19T08:37:04.103Z,79.50
2022-10-19T08:42:20.827Z,78.90
2022-10-19T08:45:09.223Z,77.90
2022-10-19T08:48:07.552Z,76.20
2022-10-19T08:50:42.711Z,75.40
2022-10-19T08:53:39.589Z,73.00
2022-10-19T08:57:04.819Z,73.00
2022-10-19T08:59:50.277Z,70.40
2022-10-19T09:02:40.782Z,71.30
2022-10-19T09:05:15.691Z,69.30
2022-10-19T09:07:42.545Z,67.50
2022-10-19T09:10:18.118Z,65.50
2022-10-19T09:12:57.803Z,64.30
2022-10-19T09:15:46.863Z,62.50
2022-10-19T09:18:20.253Z,61.00
2022-10-19T09:20:49.046Z,58.30
2022-10-19T09:23:37.289Z,58.40
2022-10-19T09:26:04.333Z,56.10
2022-10-19T09:29:01.179Z,56.00
2022-10-19T09:31:40.496Z,53.00
2022-10-19T09:34:21.323Z,54.20
2022-10-19T09:36:52.851Z,53.50
2022-10-19T09:39:19.759Z,52.80
2022-10-19T09:41:57.634Z,51.70
2022-10-19T09:44:24.577Z,50.80
2022-10-19T09:47:28.364Z,50.20
2022-10-19T09:50:07.625Z,48.20
2022-10-19T09:52:38.575Z,48.30
2022-10-19T09:55:19.791Z,48.10
2022-10-19T09:57:51.134Z,47.20
2022-10-19T10:00:31.707Z,47.00
2022-10-19T10:02:58.535Z,46.80
2022-10-19T10:05:33.279Z,46.00
2022-10-19T10:07:59.991Z,45.60
2022-10-19T10:10:31.821Z,46.40
2022-10-19T10:12:59.546Z,46.10
2022-10-19T10:15:28.224Z,45.70
2022-10-19T10:17:55.560Z,45.60
2022-10-19T10:20:27.877Z,45.30
2022-10-19T10:23:03.075Z,43.70
2022-10-19T10:25:31.886Z,43.90
2022-10-19T10:28:01.123Z,43.30
2022-10-19T10:30:29.188Z,42.70
2022-10-19T10:32:57.975Z,42.90
2022-10-19T10:35:34.481Z,42.30
2022-10-19T10:38:16.890Z,40.60
2022-10-19T10:40:59.882Z,38.90
2022-10-19T10:43:31.892Z,38.10
2022-10-19T10:46:07.075Z,38.30
2022-10-19T10:48:41.943Z,37.50
2022-10-19T10:51:29.835Z,37.00
2022-10-19T10:54:17.095Z,36.90
2022-10-19T10:56:44.137Z,35.90
2022-10-19T10:59:23.898Z,36.60
2022-10-19T11:02:12.512Z,35.50
2022-10-19T11:04:41.408Z,36.00
2022-10-19T11:07:26.627Z,35.80
2022-10-19T11:10:02.309Z,35.40
2022-10-19T11:12:44.029Z,35.00
2022-10-19T11:15:16.841Z,34.40
2022-10-19T11:17:57.472Z,34.10
2022-10-19T11:20:24.992Z,33.70
2022-10-19T11:23:13.382Z,33.90
2022-10-19T11:26:01.714Z,32.90
2022-10-19T11:28:36.029Z,33.80
2022-10-19T11:31:34.550Z,34.10
2022-10-19T11:34:28.824Z,34.40
2022-10-19T11:38:28.874Z,33.80
2022-10-19T11:41:18.565Z,32.70
2022-10-19T11:44:23.176Z,32.50
2022-10-19T11:47:11.103Z,33.00
2022-10-19T11:50:00.269Z,32.50
2022-10-19T11:52:31.078Z,32.40
2022-10-19T11:55:04.066Z,32.00
2022-10-19T11:57:49.710Z,31.60
2022-10-19T12:00:38.718Z,31.20
2022-10-19T12:03:28.303Z,31.30
2022-10-19T12:06:17.505Z,31.50
2022-10-19T12:09:19.103Z,30.90
2022-10-19T12:12:09.965Z,30.60
2022-10-19T12:14:39.370Z,30.70
2022-10-19T12:19:45.981Z,30.80
2022-10-19T12:22:15.609Z,30.60
2022-10-19T12:24:42.296Z,30.40
2022-10-19T12:27:12.841Z,30.60
2022-10-19T12:30:07.014Z,30.20
2022-10-19T12:32:43.583Z,30.40
2022-10-19T12:35:33.776Z,30.90
2022-10-19T12:38:49.374Z,30.40
2022-10-19T12:41:56.337Z,30.80
2022-10-19T12:47:27.937Z,31.60
2022-10-19T12:50:02.909Z,32.00
2022-10-19T12:52:46.282Z,32.00
2022-10-19T12:55:20.248Z,31.80
2022-10-19T13:00:48.397Z,32.40
2022-10-19T13:03:17.587Z,32.10
2022-10-19T13:05:55.594Z,31.70
2022-10-19T13:08:32.063Z,31.40
2022-10-19T13:11:07.310Z,31.10
2022-10-19T13:13:55.541Z,31.00
2022-10-19T13:16:37.444Z,31.00
2022-10-19T13:19:05.747Z,30.90
2022-10-19T13:21:51.469Z,30.80
2022-10-19T13:24:24.091Z,30.10
2022-10-19T13:27:02.950Z,30.30
2022-10-19T13:29:29.634Z,30.30
2022-10-19T13:31:56.348Z,30.60
2022-10-19T13:34:25.842Z,30.50
2022-10-19T13:37:02.871Z,30.70
2022-10-19T13:39:29.597Z,30.60
2022-10-19T13:41:56.394Z,31.10
2022-10-19T13:44:25.388Z,31.20
2022-10-19T13:47:10.031Z,31.40
2022-10-19T13:49:40.195Z,31.70
2022-10-19T13:52:23.576Z,31.60
2022-10-19T13:55:14.816Z,31.60
2022-10-19T13:58:00.482Z,31.30
2022-10-19T14:00:46.046Z,31.90
2022-10-19T14:03:30.724Z,32.00
2022-10-19T14:06:07.151Z,32.30
2022-10-19T14:09:04.919Z,31.90
2022-10-19T14:11:38.766Z,31.80
2022-10-19T14:14:11.558Z,32.80
2022-10-19T14:16:49.072Z,34.00
2022-10-19T14:19:23.105Z,34.80
2022-10-19T14:21:54.900Z,35.80
2022-10-19T14:24:27.295Z,36.70
2022-10-19T14:26:54.021Z,37.60
2022-10-19T14:29:20.756Z,38.30
2022-10-19T14:31:47.434Z,38.80
2022-10-19T14:34:14.299Z,39.40
2022-10-19T14:36:45.149Z,39.80
2022-10-19T14:39:29.652Z,40.30
2022-10-19T14:41:57.160Z,40.90
2022-10-19T14:44:34.813Z,40.90
2022-10-19T14:47:02.070Z,41.20
2022-10-19T14:49:28.838Z,41.40
2022-10-19T14:51:58.583Z,41.50
2022-10-19T14:54:27.158Z,41.90
2022-10-19T14:57:01.723Z,42.20
2022-10-19T14:59:38.681Z,42.70
2022-10-19T15:02:35.656Z,43.00
2022-10-19T15:05:04.035Z,43.00
2022-10-19T15:07:41.130Z,43.20
2022-10-19T15:10:22.057Z,43.30
2022-10-19T15:12:48.994Z,43.80
2022-10-19T15:15:19.659Z,43.60
2022-10-19T15:18:06.056Z,43.60
2022-10-19T15:21:11.733Z,43.90
2022-10-19T15:23:50.385Z,44.00
2022-10-19T15:26:26.181Z,44.30
2022-10-19T15:28:55.179Z,44.40
2022-10-19T15:31:29.371Z,44.50
2022-10-19T15:34:01.742Z,44.90
2022-10-19T15:36:30.542Z,45.20
2022-10-19T15:39:17.463Z,45.60
2022-10-19T15:41:54.848Z,45.70
2022-10-19T15:44:34.751Z,46.20
2022-10-19T15:47:33.834Z,47.10
2022-10-19T15:50:02.156Z,47.10
2022-10-19T15:52:32.784Z,47.00
2022-10-19T15:55:00.374Z,47.60
2022-10-19T15:57:34.448Z,48.10
2022-10-19T16:00:13.278Z,48.50
2022-10-19T16:02:40.304Z,48.70
2022-10-19T16:05:07.988Z,48.90
2022-10-19T16:07:36.740Z,49.10
2022-10-19T16:10:03.925Z,49.50
2022-10-19T16:12:31.469Z,49.70
2022-10-19T16:14:59.774Z,49.90
2022-10-19T16:17:26.910Z,50.20
2022-10-19T16:19:53.752Z,50.50
2022-10-19T16:22:20.653Z,50.70
2022-10-19T16:24:47.540Z,51.00
2022-10-19T16:27:17.150Z,51.10
2022-10-19T16:29:45.027Z,51.50
2022-10-19T16:32:11.875Z,51.70
2022-10-19T16:34:39.098Z,52.00
2022-10-19T16:37:07.252Z,52.10
2022-10-19T16:40:03.001Z,52.20
2022-10-19T16:42:31.194Z,52.60
2022-10-19T16:45:02.434Z,52.70
2022-10-19T16:47:29.634Z,52.80
2022-10-19T16:50:00.209Z,53.00
2022-10-19T16:52:27.963Z,53.40
2022-10-19T16:54:54.744Z,53.50
2022-10-19T16:57:21.546Z,53.70
2022-10-19T17:02:24.715Z,54.00
2022-10-19T17:04:51.447Z,54.20
2022-10-19T17:07:18.254Z,54.20
2022-10-19T17:09:45.051Z,54.50
2022-10-19T17:12:12.056Z,54.70
2022-10-19T17:14:39.723Z,54.90
2022-10-19T17:17:06.514Z,55.20
2022-10-19T17:19:33.392Z,55.40
2022-10-19T17:22:00.165Z,55.50
2022-10-19T17:24:26.992Z,55.70
2022-10-19T17:26:53.845Z,55.90
2022-10-19T17:29:20.868Z,56.20
2022-10-19T17:31:47.687Z,56.30
2022-10-19T17:34:14.522Z,56.50
2022-10-19T17:36:42.608Z,56.60
2022-10-19T17:39:12.991Z,56.90
2022-10-19T17:41:39.723Z,57.10
2022-10-19T17:44:06.438Z,57.40
2022-10-19T17:46:33.814Z,57.40
2022-10-19T17:49:01.263Z,57.50
2022-10-19T17:51:29.840Z,57.70
2022-10-19T17:53:59.557Z,57.80
2022-10-19T17:56:26.750Z,58.10
2022-10-19T17:58:56.299Z,58.10
2022-10-19T18:01:24.308Z,58.30
2022-10-19T18:03:51.085Z,58.40
2022-10-19T18:06:26.583Z,58.60
2022-10-19T18:08:58.633Z,58.70
2022-10-19T18:11:27.252Z,58.90
2022-10-19T18:13:55.813Z,59.00
2022-10-19T18:16:27.423Z,59.20
2022-10-19T18:18:55.429Z,59.40
2022-10-19T18:21:27.617Z,59.50
2022-10-19T18:23:56.808Z,59.70
2022-10-19T18:26:25.537Z,59.80
2022-10-19T18:28:53.151Z,59.80
2022-10-19T18:31:26.829Z,60.00
2022-10-19T18:34:01.290Z,60.10
2022-10-19T18:39:18.846Z,60.30
2022-10-19T18:41:45.567Z,60.50
2022-10-19T18:44:14.436Z,60.60
2022-10-19T19:03:56.420Z,61.40
2022-10-19T19:06:30.220Z,61.50
2022-10-19T19:08:57.794Z,61.80
2022-10-19T19:11:26.276Z,62.00
2022-10-19T19:14:03.860Z,62.30
2022-10-19T19:16:33.525Z,62.50
